createdAt,value
2022-12-29T00:01:01.442Z,81.90
2022-12-29T00:03:28.948Z,82.49
2022-12-29T00:05:58.162Z,82.62
2022-12-29T00:08:39.854Z,82.72
2022-12-29T00:11:16.972Z,82.39
2022-12-29T00:14:02.825Z,84.28
2022-12-29T00:16:31.392Z,85.74
2022-12-29T00:18:58.986Z,84.94
2022-12-29T00:21:46.496Z,85.16
2022-12-29T00:24:26.969Z,83.97
2022-12-29T00:27:33.128Z,82.96
2022-12-29T00:30:19.436Z,82.99
2022-12-29T00:33:05.081Z,82.82
2022-12-29T00:35:43.961Z,82.35
2022-12-29T00:38:31.259Z,82.16
2022-12-29T00:41:17.452Z,82.07
2022-12-29T00:44:03.974Z,81.45
2022-12-29T00:46:35.766Z,81.42
2022-12-29T00:49:23.658Z,81.17
2022-12-29T00:51:51.931Z,80.66
2022-12-29T00:54:19.896Z,80.25
2022-12-29T00:56:51.845Z,80.39
2022-12-29T00:59:20.055Z,80.54
2022-12-29T01:01:48.061Z,80.31
2022-12-29T01:04:15.546Z,80.89
2022-12-29T01:06:43.018Z,81.49
2022-12-29T01:09:29.946Z,81.58
2022-12-29T01:11:57.900Z,83.30
2022-12-29T01:14:25.496Z,84.06
2022-12-29T01:16:53.067Z,83.62
2022-12-29T01:19:21.808Z,82.95
2022-12-29T01:21:50.094Z,82.80
2022-12-29T01:24:18.466Z,82.96
2022-12-29T01:26:49.095Z,82.09
2022-12-29T01:29:18.205Z,84.38
2022-12-29T01:31:47.121Z,84.66
2022-12-29T01:34:14.846Z,84.99
2022-12-29T01:36:42.210Z,84.81
2022-12-29T01:39:09.457Z,83.15
2022-12-29T01:41:36.978Z,83.13
2022-12-29T01:44:47.791Z,84.23
2022-12-29T01:47:39.207Z,84.16
2022-12-29T01:50:12.572Z,84.16
2022-12-29T01:52:48.552Z,84.05
2022-12-29T01:55:16.460Z,83.42
2022-12-29T01:57:52.410Z,83.13
2022-12-29T02:00:19.844Z,82.11
2022-12-29T02:02:54.834Z,82.56
2022-12-29T02:05:25.200Z,82.50
2022-12-29T02:07:53.885Z,82.96
2022-12-29T02:10:23.868Z,83.54
2022-12-29T02:12:52.288Z,84.16
2022-12-29T02:15:42.783Z,84.27
2022-12-29T02:18:22.834Z,83.61
2022-12-29T02:21:24.218Z,83.38
2022-12-29T02:24:05.588Z,83.32
2022-12-29T02:26:45.121Z,83.37
2022-12-29T02:29:24.449Z,83.03
2022-12-29T02:32:01.097Z,83.21
2022-12-29T02:34:39.631Z,82.91
2022-12-29T02:37:22.802Z,83.01
2022-12-29T02:40:11.413Z,83.04
2022-12-29T02:42:50.561Z,82.95
2022-12-29T02:45:39.731Z,82.92
2022-12-29T02:48:23.243Z,82.86
2022-12-29T02:50:59.313Z,83.09
2022-12-29T02:53:47.144Z,83.15
2022-12-29T02:56:14.899Z,83.22
2022-12-29T02:58:42.535Z,83.36
2022-12-29T03:01:28.978Z,83.12
2022-12-29T03:04:30.422Z,83.29
2022-12-29T03:07:16.817Z,83.40
2022-12-29T03:09:56.358Z,83.29
2022-12-29T03:12:48.187Z,83.73
2022-12-29T03:15:47.699Z,83.66
2022-12-29T03:18:22.287Z,83.44
2022-12-29T03:21:03.927Z,83.46
2022-12-29T03:23:34.511Z,83.79
2022-12-29T03:26:08.715Z,84.11
2022-12-29T03:28:45.748Z,83.99
2022-12-29T03:31:43.097Z,83.79
2022-12-29T03:34:13.315Z,83.38
2022-12-29T03:37:17.335Z,83.60
2022-12-29T03:39:46.122Z,83.58
2022-12-29T03:42:22.399Z,83.84
2022-12-29T03:44:55.781Z,83.75
2022-12-29T03:47:24.677Z,83.72
2022-12-29T03:49:52.822Z,84.48
2022-12-29T03:52:19.997Z,85.38
2022-12-29T03:54:47.994Z,85.58
2022-12-29T03:57:15.423Z,85.28
2022-12-29T04:00:07.151Z,85.31
2022-12-29T04:02:42.744Z,86.62
2022-12-29T04:05:14.563Z,87.39
2022-12-29T04:07:42.638Z,86.48
2022-12-29T04:10:09.857Z,85.36
2022-12-29T04:12:37.345Z,85.81
2022-12-29T04:15:05.133Z,86.75
2022-12-29T04:17:33.790Z,86.65
2022-12-29T04:20:20.604Z,89.00
2022-12-29T04:22:48.261Z,88.99
2022-12-29T04:25:15.937Z,89.03
2022-12-29T04:27:43.180Z,88.05
2022-12-29T04:30:40.340Z,87.21
2022-12-29T04:33:18.785Z,86.92
2022-12-29T04:35:47.325Z,86.97
2022-12-29T04:38:15.914Z,86.45
2022-12-29T04:40:43.882Z,85.81
2022-12-29T04:43:11.957Z,85.89
2022-12-29T04:46:14.807Z,86.70
2022-12-29T04:48:51.915Z,88.90
2022-12-29T04:51:39.556Z,88.59
2022-12-29T04:54:09.734Z,87.82
2022-12-29T04:56:37.441Z,87.02
2022-12-29T04:59:05.020Z,86.99
2022-12-29T05:01:32.952Z,88.38
2022-12-29T05:04:01.292Z,90.51
2022-12-29T05:06:28.809Z,91.61
2022-12-29T05:08:56.579Z,91.75
2022-12-29T05:11:24.027Z,91.72
2022-12-29T05:13:51.725Z,91.06
2022-12-29T05:16:19.179Z,90.05
2022-12-29T05:18:46.478Z,89.52
2022-12-29T05:21:14.606Z,88.83
2022-12-29T05:23:43.568Z,89.03
2022-12-29T05:26:11.023Z,89.27
2022-12-29T05:28:58.894Z,89.36
2022-12-29T05:31:26.796Z,89.33
2022-12-29T05:33:54.282Z,88.79
2022-12-29T05:36:21.869Z,90.89
2022-12-29T05:38:53.817Z,92.26
2022-12-29T05:41:21.271Z,93.85
2022-12-29T05:43:48.970Z,94.22
2022-12-29T05:46:36.286Z,94.18
2022-12-29T05:49:12.515Z,93.56
2022-12-29T05:52:08.950Z,92.92
2022-12-29T05:54:36.714Z,93.25
2022-12-29T05:57:09.514Z,93.82
2022-12-29T05:59:39.537Z,94.37
2022-12-29T06:02:06.850Z,94.25
2022-12-29T06:04:35.248Z,95.08
2022-12-29T06:07:03.728Z,95.65
2022-12-29T06:09:46.137Z,95.81
2022-12-29T06:12:14.113Z,95.61
2022-12-29T06:14:44.235Z,95.63
2022-12-29T06:17:11.793Z,94.46
2022-12-29T06:19:39.355Z,94.45
2022-12-29T06:22:08.137Z,94.44
2022-12-29T06:24:37.243Z,94.83
2022-12-29T06:27:04.711Z,93.76
2022-12-29T06:29:32.774Z,93.46
2022-12-29T06:32:00.228Z,93.60
2022-12-29T06:34:29.419Z,93.45
2022-12-29T06:36:57.053Z,93.47
2022-12-29T06:39:24.535Z,93.04
2022-12-29T06:42:07.148Z,93.45
2022-12-29T06:45:05.228Z,93.02
2022-12-29T06:47:33.679Z,92.10
2022-12-29T06:50:01.263Z,91.65
2022-12-29T06:52:29.235Z,89.96
2022-12-29T06:54:56.792Z,89.10
2022-12-29T06:57:24.049Z,88.64
2022-12-29T06:59:51.301Z,87.98
2022-12-29T07:02:20.234Z,87.43
2022-12-29T07:04:47.647Z,86.67
2022-12-29T07:07:14.795Z,86.65
2022-12-29T07:09:42.049Z,86.24
2022-12-29T07:12:09.414Z,85.38
2022-12-29T07:14:42.967Z,85.22
2022-12-29T07:17:11.023Z,85.12
2022-12-29T07:19:38.437Z,85.50
2022-12-29T07:22:06.409Z,85.45
2022-12-29T07:24:33.687Z,85.51
2022-12-29T07:27:02.649Z,83.91
2022-12-29T07:29:29.914Z,84.20
2022-12-29T07:31:57.710Z,83.78
2022-12-29T07:34:24.817Z,83.54
2022-12-29T07:36:52.287Z,83.44
2022-12-29T07:39:19.835Z,82.66
2022-12-29T07:41:47.024Z,81.69
2022-12-29T07:44:18.342Z,80.91
2022-12-29T07:47:13.887Z,81.20
2022-12-29T07:49:40.998Z,80.34
2022-12-29T07:52:08.465Z,80.13
2022-12-29T07:54:36.025Z,77.83
2022-12-29T07:57:04.276Z,74.76
2022-12-29T07:59:31.454Z,75.29
2022-12-29T08:01:59.128Z,75.31
2022-12-29T08:04:26.361Z,74.86
2022-12-29T08:06:53.410Z,73.72
2022-12-29T08:09:24.318Z,73.66
2022-12-29T08:11:52.038Z,72.12
2022-12-29T08:14:19.283Z,72.74
2022-12-29T08:16:47.698Z,71.54
2022-12-29T08:19:17.447Z,70.89
2022-12-29T08:21:44.617Z,71.69
2022-12-29T08:24:11.874Z,71.14
2022-12-29T08:26:39.729Z,71.04
2022-12-29T08:29:07.305Z,70.52
2022-12-29T08:31:35.076Z,69.86
2022-12-29T08:34:03.846Z,68.82
2022-12-29T08:36:31.306Z,68.33
2022-12-29T08:38:58.756Z,68.50
2022-12-29T08:41:26.008Z,68.49
2022-12-29T08:43:55.329Z,67.94
2022-12-29T08:46:23.068Z,67.28
2022-12-29T08:48:50.747Z,67.38
2022-12-29T08:51:21.460Z,67.18
2022-12-29T08:53:52.531Z,65.56
2022-12-29T08:56:19.977Z,63.90
2022-12-29T08:58:49.390Z,63.69
2022-12-29T09:01:19.241Z,63.70
2022-12-29T09:06:39.995Z,60.99
2022-12-29T09:09:07.987Z,61.46
2022-12-29T09:11:35.645Z,61.19
2022-12-29T09:14:03.233Z,58.95
2022-12-29T09:16:30.686Z,57.82
2022-12-29T09:18:58.536Z,56.01
2022-12-29T09:21:25.578Z,57.67
2022-12-29T09:23:52.698Z,55.62
2022-12-29T09:26:20.290Z,56.36
2022-12-29T09:28:47.678Z,56.20
2022-12-29T09:31:14.899Z,54.72
2022-12-29T09:33:42.569Z,55.06
2022-12-29T09:36:09.853Z,54.16
2022-12-29T09:38:37.090Z,53.90
2022-12-29T09:41:13.657Z,54.83
2022-12-29T09:43:54.717Z,54.68
2022-12-29T09:46:34.445Z,54.31
2022-12-29T09:49:23.641Z,55.36
2022-12-29T09:51:56.011Z,54.38
2022-12-29T09:54:23.057Z,53.49
2022-12-29T09:56:51.537Z,53.94
2022-12-29T09:59:24.354Z,52.95
2022-12-29T10:02:27.736Z,52.45
2022-12-29T10:04:55.176Z,52.19
2022-12-29T10:07:46.527Z,52.00
2022-12-29T10:10:41.090Z,52.03
2022-12-29T10:13:23.705Z,50.21
2022-12-29T10:16:17.764Z,50.60
2022-12-29T10:18:57.121Z,49.05
2022-12-29T10:22:00.212Z,47.31
2022-12-29T10:24:31.693Z,47.03
2022-12-29T10:27:00.164Z,47.68
2022-12-29T10:29:35.799Z,48.52
2022-12-29T10:32:18.311Z,46.71
2022-12-29T10:34:50.280Z,45.19
2022-12-29T10:37:34.171Z,45.18
2022-12-29T10:40:13.999Z,45.51
2022-12-29T10:42:45.842Z,44.81
2022-12-29T10:45:17.410Z,44.53
2022-12-29T10:47:56.870Z,44.22
2022-12-29T10:50:26.021Z,42.56
2022-12-29T10:52:55.225Z,42.80
2022-12-29T10:55:30.976Z,42.15
2022-12-29T10:58:05.316Z,42.20
2022-12-29T11:00:34.194Z,41.48
2022-12-29T11:03:31.862Z,41.08
2022-12-29T11:06:14.163Z,40.03
2022-12-29T11:09:16.651Z,39.52
2022-12-29T11:11:44.094Z,40.41
2022-12-29T11:14:18.413Z,40.18
2022-12-29T11:17:02.358Z,39.66
2022-12-29T11:19:37.499Z,40.48
2022-12-29T11:22:29.223Z,40.15
2022-12-29T11:25:11.118Z,39.53
2022-12-29T11:27:39.236Z,39.06
2022-12-29T11:30:28.461Z,39.08
2022-12-29T11:32:57.045Z,38.32
2022-12-29T11:35:45.933Z,38.53
2022-12-29T11:38:22.541Z,38.22
2022-12-29T11:40:50.346Z,38.80
2022-12-29T11:43:30.806Z,37.66
2022-12-29T11:45:58.125Z,37.69
2022-12-29T11:48:29.787Z,36.86
2022-12-29T11:51:02.632Z,36.82
2022-12-29T11:53:43.171Z,36.82
2022-12-29T11:56:16.308Z,36.89
2022-12-29T11:58:45.204Z,37.38
2022-12-29T12:01:18.218Z,36.06
2022-12-29T12:04:16.884Z,36.43
2022-12-29T12:06:58.423Z,35.66
2022-12-29T12:09:50.044Z,35.42
2022-12-29T12:12:52.326Z,35.12
2022-12-29T12:15:28.486Z,35.09
2022-12-29T12:18:47.870Z,35.23
2022-12-29T12:21:24.333Z,35.47
2022-12-29T12:24:01.819Z,35.45
2022-12-29T12:26:35.958Z,35.74
2022-12-29T12:29:10.666Z,35.35
2022-12-29T12:32:00.546Z,35.21
2022-12-29T12:34:41.879Z,34.43
2022-12-29T12:37:12.562Z,34.15
2022-12-29T12:40:08.081Z,34.44
2022-12-29T12:42:55.700Z,34.76
2022-12-29T12:45:56.662Z,34.37
2022-12-29T12:48:48.836Z,34.15
2022-12-29T12:51:31.609Z,34.61
2022-12-29T12:54:38.194Z,34.11
2022-12-29T12:57:34.632Z,33.54
2022-12-29T13:00:09.112Z,33.00
2022-12-29T13:02:55.459Z,34.59
2022-12-29T13:05:44.715Z,35.09
2022-12-29T13:08:37.679Z,35.16
2022-12-29T13:11:23.671Z,35.33
2022-12-29T13:14:07.023Z,34.88
2022-12-29T13:17:15.820Z,35.57
2022-12-29T13:19:59.570Z,36.43
2022-12-29T13:23:01.635Z,36.95
2022-12-29T13:25:28.894Z,37.12
2022-12-29T13:28:23.690Z,37.37
2022-12-29T13:31:00.219Z,37.60
2022-12-29T13:33:46.457Z,37.68
2022-12-29T13:36:30.412Z,38.44
2022-12-29T13:39:06.737Z,38.62
2022-12-29T13:41:43.136Z,38.87
2022-12-29T13:44:17.748Z,39.31
2022-12-29T13:46:47.189Z,40.36
2022-12-29T13:49:24.822Z,41.49
2022-12-29T13:51:58.454Z,42.14
2022-12-29T13:54:43.332Z,42.25
2022-12-29T13:57:31.615Z,42.40
2022-12-29T14:00:05.283Z,43.77
2022-12-29T14:02:42.533Z,43.82
2022-12-29T14:05:42.124Z,44.07
2022-12-29T14:08:18.146Z,44.35
2022-12-29T14:10:51.589Z,44.89
2022-12-29T14:13:22.649Z,46.68
2022-12-29T14:15:59.378Z,48.31
2022-12-29T14:18:31.641Z,49.71
2022-12-29T14:21:00.506Z,51.36
2022-12-29T14:23:37.306Z,52.04
2022-12-29T14:26:31.492Z,54.49
2022-12-29T14:29:37.252Z,56.39
2022-12-29T14:32:27.836Z,57.76
2022-12-29T14:35:00.008Z,58.71
2022-12-29T14:37:30.658Z,60.47
2022-12-29T14:40:18.887Z,60.87
2022-12-29T14:42:54.133Z,61.86
2022-12-29T14:45:21.386Z,63.34
2022-12-29T14:47:51.440Z,64.39
2022-12-29T14:50:22.133Z,64.61
2022-12-29T14:53:02.549Z,65.60
2022-12-29T14:55:37.328Z,66.20
2022-12-29T14:58:13.566Z,66.63
2022-12-29T15:00:42.416Z,67.07
2022-12-29T15:03:55.097Z,67.16
2022-12-29T15:06:25.635Z,67.76
2022-12-29T15:08:59.379Z,67.93
2022-12-29T15:11:38.767Z,68.30
2022-12-29T15:14:30.597Z,68.29
2022-12-29T15:16:58.199Z,68.32
2022-12-29T15:19:27.463Z,68.18
2022-12-29T15:21:56.251Z,68.39
2022-12-29T15:24:24.513Z,67.86
2022-12-29T15:26:56.189Z,68.22
2022-12-29T15:29:38.793Z,68.26
2022-12-29T15:32:24.962Z,68.80
2022-12-29T15:34:55.358Z,69.00
2022-12-29T15:37:26.895Z,69.85
2022-12-29T15:39:56.070Z,69.45
2022-12-29T15:42:32.027Z,69.94
2022-12-29T15:45:10.124Z,70.45
2022-12-29T15:47:40.621Z,70.53
2022-12-29T15:50:14.063Z,71.26
2022-12-29T15:52:41.518Z,71.82
2022-12-29T15:55:33.049Z,72.33
2022-12-29T15:58:18.216Z,72.04
2022-12-29T16:01:03.649Z,72.95
2022-12-29T16:03:35.122Z,73.31
2022-12-29T16:06:11.507Z,73.29
2022-12-29T16:08:40.606Z,73.61
2022-12-29T16:11:47.288Z,73.90
2022-12-29T16:14:19.615Z,74.41
2022-12-29T16:16:49.613Z,74.52
2022-12-29T16:19:29.530Z,74.86
2022-12-29T16:21:59.393Z,74.77
2022-12-29T16:24:32.535Z,74.25
2022-12-29T16:27:27.740Z,74.21
2022-12-29T16:29:56.117Z,74.61
2022-12-29T16:32:32.029Z,74.35
2022-12-29T16:35:21.693Z,74.35
2022-12-29T16:38:07.543Z,73.99
2022-12-29T16:40:39.116Z,73.90
2022-12-29T16:43:31.130Z,73.68
2022-12-29T16:45:58.319Z,74.30
2022-12-29T16:48:35.692Z,74.37
2022-12-29T16:51:05.577Z,75.25
2022-12-29T16:53:37.447Z,75.46
2022-12-29T16:56:16.516Z,75.48
2022-12-29T16:58:52.986Z,76.19
2022-12-29T17:01:21.609Z,76.48
2022-12-29T17:03:53.996Z,76.97
2022-12-29T17:06:23.398Z,77.34
2022-12-29T17:08:51.792Z,77.82
2022-12-29T17:11:41.165Z,78.25
2022-12-29T17:14:26.356Z,78.76
2022-12-29T17:16:54.197Z,79.31
2022-12-29T17:19:31.801Z,80.00
2022-12-29T17:21:59.151Z,80.16
2022-12-29T17:24:26.627Z,80.60
2022-12-29T17:26:58.471Z,80.13
2022-12-29T17:29:39.138Z,80.42
2022-12-29T17:32:14.216Z,81.09
2022-12-29T17:34:41.626Z,80.58
2022-12-29T17:37:36.551Z,81.29
2022-12-29T17:40:06.983Z,81.21
2022-12-29T17:42:42.908Z,80.46
2022-12-29T17:45:16.929Z,80.32
2022-12-29T17:47:44.488Z,80.69
2022-12-29T17:50:17.281Z,80.71
2022-12-29T17:52:50.783Z,81.13
2022-12-29T17:55:20.633Z,80.94
2022-12-29T17:57:48.755Z,81.10
2022-12-29T18:00:22.566Z,80.49
2022-12-29T18:02:50.603Z,80.41
2022-12-29T18:05:21.471Z,80.18
2022-12-29T18:07:51.466Z,79.89
2022-12-29T18:10:20.200Z,79.94
2022-12-29T18:12:49.753Z,79.95
2022-12-29T18:15:39.201Z,79.79
2022-12-29T18:18:10.609Z,79.81
2022-12-29T18:20:38.880Z,79.73
2022-12-29T18:23:06.860Z,80.02
2022-12-29T18:26:12.828Z,80.17
2022-12-29T18:28:40.403Z,80.16
2022-12-29T18:31:21.423Z,80.56
2022-12-29T18:33:50.679Z,81.09
2022-12-29T18:36:19.026Z,81.63
2022-12-29T18:38:47.920Z,82.14
2022-12-29T18:41:19.567Z,82.44
2022-12-29T18:43:47.617Z,82.99
2022-12-29T18:46:22.164Z,83.68
2022-12-29T18:48:51.939Z,84.01
2022-12-29T18:51:21.406Z,84.93
2022-12-29T18:53:50.322Z,84.99
2022-12-29T18:56:17.532Z,85.62
2022-12-29T18:58:44.986Z,85.78
2022-12-29T19:01:22.553Z,86.63
2022-12-29T19:03:50.063Z,86.89
2022-12-29T19:06:17.551Z,87.39
2022-12-29T19:08:44.857Z,88.02
2022-12-29T19:11:15.099Z,88.54
2022-12-29T19:13:42.752Z,88.96
2022-12-29T19:16:18.868Z,89.50
2022-12-29T19:18:58.293Z,90.57
2022-12-29T19:21:56.003Z,90.23
2022-12-29T19:24:23.379Z,89.93
2022-12-29T19:26:50.609Z,90.34
2022-12-29T19:29:17.876Z,89.88
2022-12-29T19:31:45.511Z,88.85
2022-12-29T19:34:14.826Z,88.03
2022-12-29T19:36:43.002Z,87.52
2022-12-29T19:39:10.153Z,87.18
2022-12-29T19:41:38.023Z,87.22
2022-12-29T19:44:05.439Z,87.30
2022-12-29T19:46:32.791Z,87.52
2022-12-29T19:49:00.496Z,87.35
2022-12-29T19:51:27.955Z,87.59
2022-12-29T19:53:55.944Z,87.53
2022-12-29T19:56:24.104Z,87.19
2022-12-29T19:58:51.756Z,86.82
2022-12-29T20:01:22.871Z,86.74
2022-12-29T20:03:50.975Z,86.05
2022-12-29T20:06:19.538Z,86.07
2022-12-29T20:08:47.538Z,86.06
2022-12-29T20:11:18.395Z,86.53
2022-12-29T20:13:46.407Z,87.39
2022-12-29T20:16:18.912Z,87.74
2022-12-29T20:18:47.728Z,87.97
2022-12-29T20:21:20.402Z,88.02
2022-12-29T20:23:49.171Z,87.93
2022-12-29T20:26:24.974Z,88.22
2022-12-29T20:28:53.203Z,87.97
2022-12-29T20:31:24.898Z,88.06
2022-12-29T20:33:52.224Z,87.94
2022-12-29T20:36:26.490Z,87.81
2022-12-29T20:38:54.827Z,87.92
2022-12-29T20:41:22.980Z,88.27
2022-12-29T20:43:52.693Z,88.93
2022-12-29T20:46:22.417Z,88.85
2022-12-29T20:48:52.220Z,89.02
2022-12-29T20:51:20.548Z,89.35
2022-12-29T20:53:48.978Z,88.84
2022-12-29T20:56:20.141Z,88.89
2022-12-29T20:59:25.452Z,88.72
2022-12-29T21:01:36.971Z,88.55
2022-12-29T21:04:05.225Z,88.84
2022-12-29T21:06:33.591Z,89.10
2022-12-29T21:09:01.161Z,89.34
2022-12-29T21:11:28.624Z,89.23
2022-12-29T21:14:00.726Z,89.21
2022-12-29T21:16:29.152Z,89.22
2022-12-29T21:18:57.108Z,88.85
2022-12-29T21:21:25.740Z,88.78
2022-12-29T21:23:55.439Z,88.69
2022-12-29T21:26:24.180Z,88.66
2022-12-29T21:28:51.905Z,88.82
2022-12-29T21:31:28.292Z,88.40
2022-12-29T21:33:57.351Z,88.10
2022-12-29T21:36:25.935Z,88.06
2022-12-29T21:38:53.797Z,87.86
2022-12-29T21:41:22.378Z,87.82
2022-12-29T21:44:10.100Z,87.68
2022-12-29T21:46:39.926Z,87.53
2022-12-29T21:49:07.489Z,87.52
2022-12-29T21:51:50.142Z,87.51
2022-12-29T21:54:37.831Z,87.56
2022-12-29T21:57:05.705Z,87.85
2022-12-29T21:59:52.106Z,87.99
2022-12-29T22:02:43.649Z,87.72
2022-12-29T22:05:33.511Z,87.58
2022-12-29T22:08:21.185Z,87.39
2022-12-29T22:11:07.860Z,87.43
2022-12-29T22:13:37.358Z,87.45
2022-12-29T22:16:10.412Z,87.62
2022-12-29T22:18:38.948Z,88.06
2022-12-29T22:21:08.631Z,88.29
2022-12-29T22:23:39.826Z,88.47
2022-12-29T22:26:10.108Z,88.91
2022-12-29T22:28:39.667Z,89.07
2022-12-29T22:31:21.095Z,89.28
2022-12-29T22:33:48.451Z,89.35
2022-12-29T22:36:15.911Z,89.20
2022-12-29T22:38:42.909Z,89.28
2022-12-29T22:41:10.109Z,89.16
2022-12-29T22:43:37.664Z,89.18
2022-12-29T22:46:07.130Z,89.19
2022-12-29T22:48:35.319Z,88.91
2022-12-29T22:51:03.527Z,88.96
2022-12-29T22:53:30.887Z,88.95
2022-12-29T22:56:10.223Z,89.17
2022-12-29T22:58:45.864Z,90.48
2022-12-29T23:01:15.649Z,90.78
2022-12-29T23:03:44.033Z,90.65
2022-12-29T23:06:13.695Z,91.20
2022-12-29T23:08:41.038Z,91.75
2022-12-29T23:11:11.426Z,92.60
2022-12-29T23:13:40.591Z,92.85
2022-12-29T23:16:08.095Z,93.08
2022-12-29T23:18:35.763Z,93.15
2022-12-29T23:21:03.735Z,93.48
2022-12-29T23:23:49.971Z,93.26
2022-12-29T23:26:19.845Z,93.39
2022-12-29T23:28:47.713Z,93.86
2022-12-29T23:31:16.031Z,94.32
2022-12-29T23:33:43.760Z,95.01
2022-12-29T23:36:11.834Z,95.61
2022-12-29T23:38:38.872Z,96.12
2022-12-29T23:41:07.041Z,95.52
2022-12-29T23:43:35.233Z,95.95
2022-12-29T23:46:10.852Z,96.28
2022-12-29T23:48:38.436Z,97.11
2022-12-29T23:51:07.066Z,96.57
2022-12-29T23:53:35.459Z,96.96
2022-12-29T23:56:03.877Z,97.83
2022-12-29T23:58:31.762Z,98.08
